Time;durP1;ratioP1;P1;durP2;ratioP2;P2;SDS_P1;SDS_P2;PMS_P1;PMS_P2;Temp;Humidity;BMP_temperature;BMP_pressure;BME280_temperature;BME280_humidity;BME280_pressure;Samples;Min_cycle;Max_cycle;Signal;HPM_P1;HPM_P2
2021/12/18 00:01:50;;;;;;;4.07;1.83;;;7.20;99.90;;;;;;4993050;28;20049;-68
2021/12/18 00:04:16;;;;;;;3.88;1.60;;;7.20;99.90;;;;;;4991445;28;20045;-68
2021/12/18 00:06:41;;;;;;;3.07;1.33;;;7.20;99.90;;;;;;4985635;28;20042;-68
2021/12/18 00:09:08;;;;;;;4.40;1.80;;;7.20;99.90;;;;;;4987242;28;20045;-68
2021/12/18 00:11:34;;;;;;;4.47;1.80;;;7.20;99.90;;;;;;5013069;28;20041;-68
2021/12/18 00:13:59;;;;;;;4.53;2.10;;;7.20;99.90;;;;;;4998353;28;20498;-68
2021/12/18 00:16:25;;;;;;;3.60;1.63;;;7.20;99.90;;;;;;4995726;28;20034;-68
2021/12/18 00:18:53;;;;;;;4.97;1.93;;;7.20;99.90;;;;;;4995444;28;20042;-68
2021/12/18 00:21:20;;;;;;;3.35;1.80;;;7.20;99.90;;;;;;4993942;28;20038;-68
2021/12/18 00:23:46;;;;;;;3.65;1.20;;;7.20;99.90;;;;;;5009212;28;20057;-68
2021/12/18 00:26:12;;;;;;;3.37;1.17;;;7.30;99.90;;;;;;5004134;28;20026;-68
2021/12/18 00:28:37;;;;;;;3.47;1.13;;;7.20;99.90;;;;;;5010523;28;20622;-68
2021/12/18 00:31:03;;;;;;;2.63;0.90;;;7.20;99.90;;;;;;5000468;28;20471;-68
2021/12/18 00:33:29;;;;;;;3.30;1.07;;;7.20;99.90;;;;;;5000732;28;20046;-68
2021/12/18 00:35:54;;;;;;;5.73;1.13;;;7.20;99.90;;;;;;4986614;28;20057;-68
2021/12/18 00:38:28;;;;;;;3.77;0.90;;;7.20;99.90;;;;;;5011677;28;20449;-68
2021/12/18 00:43:34;;;;;;;3.88;1.00;;;7.10;99.90;;;;;;5007170;28;20088;-68
2021/12/18 00:46:00;;;;;;;3.20;0.90;;;7.10;99.90;;;;;;4987732;28;20052;-68
2021/12/18 00:48:26;;;;;;;2.15;0.85;;;7.10;99.90;;;;;;5003292;28;20038;-68
2021/12/18 00:50:52;;;;;;;1.33;0.57;;;7.00;99.90;;;;;;4983810;28;20191;-68
2021/12/18 00:53:18;;;;;;;2.42;0.52;;;7.00;99.90;;;;;;4988078;28;20529;-68
2021/12/18 00:55:45;;;;;;;2.00;0.63;;;7.00;99.90;;;;;;4987882;28;20442;-68
2021/12/18 00:58:11;;;;;;;2.88;0.82;;;6.90;99.90;;;;;;4999996;28;20080;-69
2021/12/18 01:00:40;;;;;;;1.95;0.73;;;6.90;99.90;;;;;;4983960;28;20434;-68
2021/12/18 01:03:14;;;;;;;2.05;0.70;;;6.90;99.90;;;;;;5002704;28;20554;-68
2021/12/18 01:05:40;;;;;;;4.05;1.10;;;6.90;99.90;;;;;;5005113;28;20688;-68
2021/12/18 01:08:05;;;;;;;3.27;0.87;;;6.90;99.90;;;;;;4988586;28;20187;-68
2021/12/18 01:12:59;;;;;;;2.77;0.70;;;6.90;99.90;;;;;;5003643;28;20073;-68
2021/12/18 01:15:38;;;;;;;1.70;0.70;;;6.90;99.90;;;;;;5004038;28;20072;-68
2021/12/18 01:23:34;;;;;;;1.65;0.60;;;6.80;99.90;;;;;;5005798;28;20307;-69
2021/12/18 01:26:00;;;;;;;1.90;0.73;;;6.80;99.90;;;;;;5001995;28;20499;-68
2021/12/18 01:28:26;;;;;;;2.72;0.95;;;6.90;99.90;;;;;;5009474;28;20068;-68
2021/12/18 01:30:52;;;;;;;1.23;0.60;;;6.90;99.90;;;;;;4982600;28;20057;-68
2021/12/18 01:33:18;;;;;;;2.35;0.77;;;6.90;99.90;;;;;;5003980;28;20692;-68
2021/12/18 01:35:52;;;;;;;1.33;0.70;;;6.80;99.90;;;;;;5009064;28;20041;-68
2021/12/18 01:38:24;;;;;;;1.63;0.80;;;6.90;99.90;;;;;;4991825;28;20092;-68
2021/12/18 01:40:50;;;;;;;1.63;0.65;;;6.90;99.90;;;;;;4988522;28;20434;-68
2021/12/18 01:53:43;;;;;;;3.92;0.80;;;6.80;99.90;;;;;;5011038;28;20049;-68
2021/12/18 01:56:09;;;;;;;8.30;1.30;;;6.90;99.90;;;;;;5012287;28;20128;-68
2021/12/18 01:58:35;;;;;;;6.15;1.20;;;6.80;99.90;;;;;;5010118;28;20041;-68
2021/12/18 02:01:03;;;;;;;8.65;1.30;;;6.80;99.90;;;;;;4989528;28;20045;-68
2021/12/18 02:03:29;;;;;;;2.20;1.08;;;6.80;99.90;;;;;;4989379;28;20527;-68
2021/12/18 02:05:55;;;;;;;;;;;6.80;99.90;;;;;;4989362;28;20052;-68
2021/12/18 02:08:24;;;;;;;3.97;1.17;;;6.80;99.90;;;;;;4984955;28;20322;-69
2021/12/18 02:10:56;;;;;;;7.35;1.80;;;6.80;99.90;;;;;;4990436;28;20123;-68
2021/12/18 02:21:23;;;;;;;7.97;2.13;;;6.70;99.90;;;;;;5014084;28;20049;-68
2021/12/18 02:23:50;;;;;;;5.55;1.67;;;6.80;99.90;;;;;;4982986;28;20048;-68
2021/12/18 02:26:16;;;;;;;6.28;1.40;;;6.80;99.90;;;;;;5008825;28;20585;-68
2021/12/18 02:28:47;;;;;;;5.80;1.90;;;6.80;99.90;;;;;;4991383;28;20554;-68
2021/12/18 02:31:14;;;;;;;5.45;1.65;;;6.80;99.90;;;;;;5003091;28;20058;-68
2021/12/18 02:33:40;;;;;;;5.07;1.85;;;6.70;99.90;;;;;;5006807;28;20045;-68
2021/12/18 02:36:09;;;;;;;13.05;1.67;;;6.80;99.90;;;;;;5003136;28;20049;-68
2021/12/18 02:43:59;;;;;;;5.80;1.50;;;6.80;99.90;;;;;;5007190;28;20049;-68
2021/12/18 02:46:24;;;;;;;3.95;1.40;;;6.80;99.90;;;;;;4988727;28;20038;-68
2021/12/18 02:48:52;;;;;;;3.10;1.13;;;6.80;99.90;;;;;;5001503;28;20084;-68
2021/12/18 02:51:19;;;;;;;1.55;0.68;;;6.80;99.90;;;;;;5008738;28;20044;-68
2021/12/18 02:53:48;;;;;;;3.15;1.00;;;6.80;99.90;;;;;;5007717;28;20435;-68
2021/12/18 02:56:15;;;;;;;3.92;1.05;;;6.70;99.90;;;;;;5003947;28;20358;-68
2021/12/18 02:58:45;;;;;;;5.50;1.42;;;6.70;99.90;;;;;;5003591;28;20503;-68
2021/12/18 03:01:13;;;;;;;4.75;1.10;;;6.70;99.90;;;;;;5017020;23;20120;-67
2021/12/18 03:03:41;;;;;;;2.45;0.85;;;6.70;99.90;;;;;;5036922;28;20044;-66
2021/12/18 03:25:24;;;;;;;5.22;1.20;;;6.80;99.90;;;;;;5044919;28;20041;-67
2021/12/18 03:27:51;;;;;;;4.13;1.05;;;6.80;99.90;;;;;;5047998;28;20180;-65
2021/12/18 03:30:17;;;;;;;3.28;1.27;;;6.80;99.90;;;;;;5027145;28;20049;-68
2021/12/18 03:32:44;;;;;;;4.95;1.38;;;6.80;99.90;;;;;;5017031;28;20460;-66
2021/12/18 03:35:10;;;;;;;9.23;1.52;;;6.80;99.90;;;;;;5040653;28;20033;-68
2021/12/18 03:37:36;;;;;;;;;;;6.80;99.90;;;;;;5042939;28;20033;-66
2021/12/18 03:40:08;;;;;;;6.80;1.50;;;6.80;99.90;;;;;;5026683;28;20352;-66
2021/12/18 03:42:34;;;;;;;5.15;1.60;;;6.80;99.90;;;;;;5045995;28;20045;-65
2021/12/18 03:44:59;;;;;;;4.83;1.30;;;6.80;99.90;;;;;;5045828;28;20506;-66
2021/12/18 03:47:25;;;;;;;5.63;1.47;;;6.90;99.90;;;;;;5032182;28;20167;-68
2021/12/18 03:49:51;;;;;;;5.20;1.77;;;6.90;99.90;;;;;;5037534;28;20072;-69
2021/12/18 03:52:17;;;;;;;8.37;1.80;;;6.90;99.90;;;;;;5050508;28;20036;-68
2021/12/18 03:54:43;;;;;;;7.03;1.80;;;6.90;99.90;;;;;;5053680;28;20077;-68
2021/12/18 03:57:08;;;;;;;5.93;1.27;;;6.90;99.90;;;;;;5040858;28;20598;-67
2021/12/18 03:59:34;;;;;;;6.90;1.43;;;6.90;99.90;;;;;;5044618;28;20299;-67
2021/12/18 04:02:00;;;;;;;7.50;1.97;;;6.90;99.90;;;;;;5032414;28;20059;-67
2021/12/18 04:04:26;;;;;;;5.63;1.77;;;7.00;99.90;;;;;;5044471;28;20098;-66
2021/12/18 04:06:52;;;;;;;7.53;1.95;;;7.00;99.90;;;;;;5041808;28;20079;-67
2021/12/18 04:09:18;;;;;;;6.43;2.13;;;7.00;99.90;;;;;;5047776;28;20032;-67
2021/12/18 04:11:46;;;;;;;5.85;1.80;;;7.00;99.90;;;;;;5048830;28;20044;-67
2021/12/18 04:14:13;;;;;;;4.70;1.92;;;7.00;99.90;;;;;;5041534;28;20041;-67
2021/12/18 04:16:39;;;;;;;6.40;1.75;;;7.00;99.90;;;;;;5032952;28;20048;-66
2021/12/18 04:19:05;;;;;;;8.40;2.77;;;7.10;99.90;;;;;;5040394;28;20036;-66
2021/12/18 04:21:32;;;;;;;8.57;2.50;;;7.10;99.90;;;;;;5033985;28;20041;-66
2021/12/18 04:23:59;;;;;;;9.02;2.20;;;7.10;99.90;;;;;;5042801;28;20500;-66
2021/12/18 04:26:24;;;;;;;;;;;7.10;99.90;;;;;;5051719;28;20367;-64
2021/12/18 04:28:50;;;;;;;7.32;2.58;;;7.10;99.90;;;;;;5050325;28;19917;-63
2021/12/18 04:31:16;;;;;;;8.03;2.57;;;7.10;99.90;;;;;;5047586;28;20566;-64
2021/12/18 04:33:42;;;;;;;9.73;2.95;;;7.10;99.90;;;;;;5050858;28;20433;-64
2021/12/18 04:36:08;;;;;;;7.65;2.90;;;7.20;99.90;;;;;;5051209;28;20040;-64
2021/12/18 04:38:34;;;;;;;8.50;2.90;;;7.20;99.90;;;;;;5029563;28;20517;-66
2021/12/18 04:41:00;;;;;;;9.27;2.47;;;7.20;99.90;;;;;;5032014;28;20040;-66
2021/12/18 04:43:26;;;;;;;7.70;2.47;;;7.20;99.90;;;;;;5031321;28;20056;-66
2021/12/18 04:45:51;;;;;;;5.90;1.97;;;7.20;99.90;;;;;;5027726;28;20044;-66
2021/12/18 04:48:17;;;;;;;7.27;2.17;;;7.20;99.90;;;;;;5043148;28;20097;-66
2021/12/18 04:50:43;;;;;;;6.63;2.20;;;7.20;99.90;;;;;;5043771;28;20045;-65
2021/12/18 04:53:10;;;;;;;5.13;1.47;;;7.20;99.90;;;;;;5046989;28;20508;-65
2021/12/18 04:55:36;;;;;;;4.07;1.42;;;7.20;99.90;;;;;;5050049;28;20072;-66
2021/12/18 04:58:02;;;;;;;3.78;1.90;;;7.20;99.90;;;;;;5048697;28;20109;-65
2021/12/18 05:00:37;;;;;;;3.97;1.77;;;7.30;99.90;;;;;;5045713;28;20037;-65
2021/12/18 05:03:05;;;;;;;7.28;1.70;;;7.30;99.90;;;;;;5028004;28;20400;-66
2021/12/18 05:05:32;;;;;;;5.78;1.85;;;7.30;99.90;;;;;;5044406;28;20033;-66
2021/12/18 05:07:57;;;;;;;6.55;1.88;;;7.30;99.90;;;;;;5047324;28;20056;-66
2021/12/18 05:10:23;;;;;;;5.67;2.00;;;7.30;99.90;;;;;;5044882;28;20040;-66
2021/12/18 05:12:49;;;;;;;4.57;1.90;;;7.30;99.90;;;;;;5048516;28;20359;-66
2021/12/18 05:15:14;;;;;;;3.83;1.60;;;7.30;99.90;;;;;;5044365;28;20044;-68
2021/12/18 05:17:40;;;;;;;4.73;1.70;;;7.30;99.90;;;;;;5053511;28;20049;-66
2021/12/18 05:20:07;;;;;;;5.20;1.53;;;7.30;99.90;;;;;;5050956;28;20110;-66
2021/12/18 05:22:32;;;;;;;4.68;1.60;;;7.30;99.90;;;;;;5050335;28;20123;-65
2021/12/18 05:24:58;;;;;;;3.90;1.80;;;7.30;99.90;;;;;;5050358;28;20139;-66
2021/12/18 05:27:23;;;;;;;3.83;1.50;;;7.30;99.90;;;;;;5046963;28;20033;-65
2021/12/18 05:29:49;;;;;;;6.10;2.03;;;7.30;99.90;;;;;;5045254;28;20037;-65
2021/12/18 05:32:14;;;;;;;6.17;1.80;;;7.30;99.90;;;;;;5047359;28;20048;-67
2021/12/18 05:34:40;;;;;;;4.37;1.70;;;7.30;99.90;;;;;;5041408;28;20091;-66
2021/12/18 05:37:31;;;;;;;5.13;1.77;;;7.30;99.90;;;;;;5048487;28;20127;-66
2021/12/18 05:39:57;;;;;;;6.07;1.88;;;7.30;99.90;;;;;;5045145;28;20128;-66
2021/12/18 05:42:23;;;;;;;4.15;2.00;;;7.30;99.90;;;;;;5045929;28;20047;-66
2021/12/18 05:44:48;;;;;;;7.47;2.07;;;7.40;99.90;;;;;;5044954;28;20444;-65
2021/12/18 05:47:14;;;;;;;5.37;1.87;;;7.40;99.90;;;;;;5047669;28;20060;-65
2021/12/18 05:49:43;;;;;;;5.90;2.30;;;7.40;99.90;;;;;;5028495;28;20107;-65
2021/12/18 05:52:08;;;;;;;5.65;2.17;;;7.40;99.90;;;;;;5048071;28;20033;-64
2021/12/18 05:54:35;;;;;;;4.90;2.33;;;7.40;99.90;;;;;;5053145;28;20030;-64
2021/12/18 05:57:06;;;;;;;6.25;2.80;;;7.40;99.90;;;;;;5045330;28;20196;-68
2021/12/18 05:59:32;;;;;;;8.27;3.05;;;7.40;99.90;;;;;;5024666;28;20049;-67
2021/12/18 06:01:58;;;;;;;7.32;2.75;;;7.40;99.90;;;;;;5040706;28;20045;-65
2021/12/18 06:04:24;;;;;;;6.23;2.53;;;7.40;99.90;;;;;;5042474;28;20025;-66
2021/12/18 06:06:49;;;;;;;11.97;3.30;;;7.40;99.90;;;;;;5041284;28;20044;-67
2021/12/18 06:09:15;;;;;;;8.30;2.90;;;7.40;99.90;;;;;;5042927;28;20043;-65
2021/12/18 06:11:41;;;;;;;8.13;2.77;;;7.50;99.90;;;;;;5046270;28;20040;-65
2021/12/18 06:14:07;;;;;;;8.30;3.13;;;7.40;99.90;;;;;;5048785;28;20067;-66
2021/12/18 06:16:33;;;;;;;8.63;2.90;;;7.50;99.90;;;;;;5049809;28;20072;-66
2021/12/18 06:18:59;;;;;;;9.95;3.60;;;7.50;99.90;;;;;;5052981;28;20075;-66
2021/12/18 06:21:24;;;;;;;9.37;3.57;;;7.50;99.90;;;;;;5044719;28;20067;-65
2021/12/18 06:23:52;;;;;;;9.83;3.57;;;7.50;99.90;;;;;;5031435;28;20091;-65
2021/12/18 06:26:19;;;;;;;7.03;3.00;;;7.50;99.90;;;;;;5043001;28;20463;-65
2021/12/18 06:28:45;;;;;;;;;;;7.50;99.90;;;;;;5046199;28;20126;-66
2021/12/18 06:31:10;;;;;;;8.48;3.03;;;7.50;99.90;;;;;;5049552;28;19916;-66
2021/12/18 06:33:36;;;;;;;13.20;3.80;;;7.50;99.90;;;;;;5048144;28;20076;-66
2021/12/18 06:36:02;;;;;;;7.53;2.60;;;7.50;99.90;;;;;;5026731;28;20048;-65
2021/12/18 06:38:28;;;;;;;12.93;3.45;;;7.50;99.90;;;;;;5045232;28;20059;-66
2021/12/18 06:40:53;;;;;;;10.07;3.60;;;7.50;99.90;;;;;;5048623;28;20105;-66
2021/12/18 06:43:19;;;;;;;8.70;3.83;;;7.50;99.90;;;;;;5046948;28;20036;-66
2021/12/18 06:45:45;;;;;;;6.63;2.70;;;7.50;99.90;;;;;;5043132;28;20231;-66
2021/12/18 06:48:10;;;;;;;8.13;3.33;;;7.50;99.90;;;;;;5043061;28;20674;-66
2021/12/18 06:50:37;;;;;;;10.43;3.00;;;7.60;99.90;;;;;;5046817;28;20113;-65
2021/12/18 06:53:04;;;;;;;11.13;3.50;;;7.60;99.90;;;;;;5009887;28;20405;-66
2021/12/18 06:55:30;;;;;;;9.90;3.67;;;7.60;99.90;;;;;;5047336;28;20583;-66
2021/12/18 06:57:57;;;;;;;9.27;3.65;;;7.60;99.90;;;;;;5046729;28;20053;-67
2021/12/18 07:00:23;;;;;;;8.33;3.53;;;7.60;99.90;;;;;;5048316;28;20454;-65
2021/12/18 07:02:49;;;;;;;;;;;7.60;99.90;;;;;;5011346;28;20044;-65
2021/12/18 07:05:15;;;;;;;10.52;3.03;;;7.60;99.90;;;;;;5044807;28;19923;-66
2021/12/18 07:07:41;;;;;;;11.47;3.60;;;7.60;99.90;;;;;;5022535;28;20077;-66
2021/12/18 07:10:09;;;;;;;11.07;3.60;;;7.60;99.90;;;;;;5047874;28;20041;-66
2021/12/18 07:12:35;;;;;;;12.00;3.70;;;7.60;99.90;;;;;;5045355;28;20396;-67
2021/12/18 07:15:02;;;;;;;10.23;3.80;;;7.60;99.90;;;;;;5039915;28;20071;-67
2021/12/18 07:17:31;;;;;;;15.43;4.00;;;7.60;99.90;;;;;;5046312;28;20395;-66
2021/12/18 07:19:56;;;;;;;11.25;4.15;;;7.60;99.90;;;;;;5046803;28;20032;-66
2021/12/18 07:22:22;;;;;;;13.30;4.00;;;7.60;99.90;;;;;;5042417;28;20045;-67
2021/12/18 07:24:48;;;;;;;7.47;3.57;;;7.70;99.90;;;;;;5047876;28;20337;-67
2021/12/18 07:27:13;;;;;;;7.27;3.07;;;7.60;99.90;;;;;;5041912;28;20029;-66
2021/12/18 07:29:39;;;;;;;11.50;4.10;;;7.70;99.90;;;;;;5040058;28;20041;-65
2021/12/18 07:32:05;;;;;;;11.37;3.93;;;7.70;99.90;;;;;;5050275;28;20457;-67
2021/12/18 07:34:30;;;;;;;12.95;4.03;;;7.70;99.90;;;;;;5038935;28;20090;-68
2021/12/18 07:36:56;;;;;;;9.00;3.23;;;7.70;99.90;;;;;;5049860;28;20045;-67
2021/12/18 07:39:22;;;;;;;9.63;3.27;;;7.70;99.90;;;;;;5035641;28;20124;-68
2021/12/18 07:41:48;;;;;;;10.35;4.03;;;7.70;99.90;;;;;;5049506;28;20054;-67
2021/12/18 07:44:16;;;;;;;9.33;3.57;;;7.70;99.90;;;;;;5045341;28;20339;-67
2021/12/18 07:46:42;;;;;;;8.40;3.67;;;7.70;99.90;;;;;;5047765;28;20109;-68
2021/12/18 07:49:08;;;;;;;13.03;3.40;;;7.80;99.90;;;;;;5028285;28;20138;-67
2021/12/18 07:51:36;;;;;;;11.52;3.60;;;7.80;99.90;;;;;;5044620;28;20120;-68
2021/12/18 07:54:02;;;;;;;13.35;3.63;;;7.80;99.90;;;;;;5042498;28;20621;-68
2021/12/18 07:56:27;;;;;;;12.00;3.70;;;7.80;99.90;;;;;;5024294;28;20047;-68
2021/12/18 07:58:53;;;;;;;9.73;3.70;;;7.80;99.90;;;;;;5024034;28;20037;-68
2021/12/18 08:01:19;;;;;;;13.47;3.37;;;7.80;99.90;;;;;;5045766;28;20036;-68
2021/12/18 08:03:45;;;;;;;10.73;4.22;;;7.80;99.90;;;;;;5035342;28;20295;-69
2021/12/18 08:06:11;;;;;;;10.77;3.30;;;7.80;99.90;;;;;;5018157;28;20044;-68
2021/12/18 08:08:37;;;;;;;13.13;3.47;;;7.90;99.90;;;;;;5044325;28;20044;-68
2021/12/18 08:11:03;;;;;;;9.68;4.38;;;7.90;99.90;;;;;;5048980;28;20040;-68
2021/12/18 08:13:29;;;;;;;;;;;7.90;99.90;;;;;;5024402;28;20908;-68
2021/12/18 08:15:55;;;;;;;8.75;3.00;;;7.90;99.90;;;;;;5024886;28;19917;-69
2021/12/18 08:18:20;;;;;;;11.00;3.87;;;7.90;99.90;;;;;;5008088;28;20083;-66
2021/12/18 08:20:46;;;;;;;8.50;3.90;;;7.90;99.90;;;;;;5047353;28;20119;-66
2021/12/18 08:23:12;;;;;;;8.77;4.30;;;7.90;99.90;;;;;;5020190;28;20071;-66
2021/12/18 08:25:37;;;;;;;11.33;3.23;;;8.00;99.90;;;;;;5035875;28;20052;-66
2021/12/18 08:28:04;;;;;;;12.52;2.80;;;8.00;99.90;;;;;;5042474;28;20394;-67
2021/12/18 08:30:33;;;;;;;;;;;8.00;99.90;;;;;;5045914;28;20067;-67
2021/12/18 08:32:59;;;;;;;9.50;3.13;;;8.00;99.90;;;;;;5020480;28;20327;-67
2021/12/18 08:35:29;;;;;;;6.82;3.25;;;8.00;99.90;;;;;;5038796;28;20049;-67
2021/12/18 08:37:56;;;;;;;7.53;2.97;;;8.10;99.90;;;;;;5028204;28;20143;-66
2021/12/18 08:40:24;;;;;;;9.60;3.28;;;8.10;99.90;;;;;;5034029;28;20106;-65
2021/12/18 08:42:50;;;;;;;6.78;3.15;;;8.10;99.90;;;;;;5047038;28;20097;-65
2021/12/18 08:45:16;;;;;;;7.40;3.20;;;8.10;99.90;;;;;;5044721;28;20079;-66
2021/12/18 08:47:42;;;;;;;10.30;3.97;;;8.10;99.90;;;;;;5040110;28;20779;-69
2021/12/18 08:50:13;;;;;;;9.48;3.30;;;8.20;99.90;;;;;;5027690;28;20041;-67
2021/12/18 08:52:39;;;;;;;5.47;2.50;;;8.20;99.90;;;;;;5031590;28;20167;-66
2021/12/18 08:55:05;;;;;;;9.80;3.55;;;8.20;99.90;;;;;;5039647;28;20067;-66
2021/12/18 08:57:31;;;;;;;8.75;3.40;;;8.20;99.90;;;;;;5038113;28;20080;-66
2021/12/18 08:59:57;;;;;;;10.67;4.00;;;8.30;99.90;;;;;;5045553;28;20401;-64
2021/12/18 09:02:22;;;;;;;5.90;3.17;;;8.30;99.90;;;;;;5070694;22;20311;-81
2021/12/18 09:04:49;;;;;;;9.03;3.40;;;8.30;99.90;;;;;;5038557;28;20427;-81
2021/12/18 09:07:14;;;;;;;;;;;8.30;99.90;;;;;;5042530;28;20387;-81
2021/12/18 09:09:50;;;;;;;8.25;4.13;;;8.30;99.90;;;;;;5055731;28;19927;-82
2021/12/18 09:12:15;;;;;;;13.07;3.92;;;8.40;99.90;;;;;;5025619;28;20447;-81
2021/12/18 09:14:41;;;;;;;8.40;3.40;;;8.40;99.90;;;;;;5008101;28;20042;-83
2021/12/18 09:17:10;;;;;;;11.37;3.47;;;8.40;99.90;;;;;;5021504;28;20041;-83
2021/12/18 09:19:36;;;;;;;14.10;3.20;;;8.40;99.90;;;;;;5018935;28;20480;-83
2021/12/18 09:22:04;;;;;;;5.28;2.47;;;8.40;99.90;;;;;;5027238;28;20040;-82
2021/12/18 09:24:30;;;;;;;7.72;2.53;;;8.50;99.90;;;;;;5011442;28;20033;-83
2021/12/18 09:26:56;;;;;;;8.07;2.67;;;8.50;99.90;;;;;;5019020;28;20076;-83
2021/12/18 09:29:21;;;;;;;5.83;2.23;;;8.60;99.90;;;;;;5005768;28;20443;-83
2021/12/18 09:31:47;;;;;;;7.70;2.20;;;8.50;99.90;;;;;;5026126;28;20119;-82
2021/12/18 09:34:12;;;;;;;4.80;2.23;;;8.50;99.90;;;;;;5025677;28;20101;-83
2021/12/18 09:36:38;;;;;;;4.73;2.70;;;8.40;99.90;;;;;;5017441;28;20104;-84
2021/12/18 09:39:05;;;;;;;5.47;2.07;;;8.50;99.90;;;;;;5002211;28;20046;-83
2021/12/18 09:41:31;;;;;;;7.00;2.95;;;8.50;99.90;;;;;;5012828;28;20175;-82
2021/12/18 09:43:57;;;;;;;17.15;6.18;;;8.50;99.90;;;;;;5018978;28;20127;-82
2021/12/18 09:46:25;;;;;;;13.10;4.73;;;8.60;99.90;;;;;;5017585;28;20533;-82
2021/12/18 09:48:51;;;;;;;6.90;2.28;;;8.60;99.90;;;;;;5021848;28;20048;-82
2021/12/18 09:51:27;;;;;;;5.23;2.20;;;8.60;99.90;;;;;;5024240;28;20049;-83
2021/12/18 09:53:55;;;;;;;3.83;1.70;;;8.50;99.90;;;;;;5015568;28;20128;-82
2021/12/18 09:56:22;;;;;;;3.53;1.55;;;8.60;99.90;;;;;;5019066;28;20041;-84
2021/12/18 09:58:51;;;;;;;3.95;1.92;;;8.60;99.90;;;;;;5000682;28;20053;-82
2021/12/18 10:01:21;;;;;;;4.05;2.30;;;8.50;99.90;;;;;;5016672;28;20034;-81
2021/12/18 10:03:57;;;;;;;6.10;2.00;;;8.60;99.90;;;;;;5018625;28;20029;-81
2021/12/18 10:06:33;;;;;;;8.38;1.98;;;8.60;99.90;;;;;;5016109;28;20112;-82
2021/12/18 10:09:07;;;;;;;8.45;2.05;;;8.50;99.90;;;;;;4998744;28;20045;-84
2021/12/18 10:11:33;;;;;;;3.80;1.77;;;8.60;99.90;;;;;;5019150;28;20047;-83
2021/12/18 10:14:06;;;;;;;8.63;2.33;;;8.50;99.90;;;;;;5018231;28;20287;-82
2021/12/18 10:16:48;;;;;;;3.42;1.30;;;8.50;99.90;;;;;;5002649;28;20080;-82
2021/12/18 10:19:36;;;;;;;4.60;1.40;;;8.50;99.90;;;;;;5004888;28;20029;-82
2021/12/18 10:22:07;;;;;;;2.35;1.27;;;8.50;99.90;;;;;;5017472;28;20065;-82
2021/12/18 10:24:36;;;;;;;4.35;1.77;;;8.50;99.90;;;;;;5016703;28;20072;-82
2021/12/18 10:27:16;;;;;;;2.88;1.17;;;8.40;99.90;;;;;;5024236;28;20503;-83
2021/12/18 10:29:42;;;;;;;4.57;1.25;;;8.40;99.90;;;;;;5020947;28;20040;-84
2021/12/18 10:32:19;;;;;;;3.60;1.63;;;8.50;99.90;;;;;;5017588;28;20136;-82
2021/12/18 10:34:56;;;;;;;4.47;1.73;;;8.50;99.90;;;;;;5019720;28;20065;-83
2021/12/18 10:37:24;;;;;;;7.07;2.10;;;8.50;99.90;;;;;;5019874;28;20072;-82
2021/12/18 10:39:50;;;;;;;5.63;2.22;;;8.50;99.90;;;;;;5017139;28;20041;-82
2021/12/18 10:42:35;;;;;;;7.63;2.90;;;8.50;99.90;;;;;;5015757;28;20048;-82
2021/12/18 10:45:07;;;;;;;8.20;2.70;;;8.50;99.90;;;;;;5016170;28;20383;-82
2021/12/18 10:48:01;;;;;;;5.53;2.33;;;8.50;99.90;;;;;;5014380;28;20049;-82
2021/12/18 10:50:28;;;;;;;3.90;2.10;;;8.50;99.90;;;;;;5007682;28;20029;-83
2021/12/18 10:53:00;;;;;;;7.18;2.65;;;8.50;99.90;;;;;;5024867;28;20060;-84
2021/12/18 10:55:42;;;;;;;9.18;2.15;;;8.50;99.90;;;;;;5017030;28;20074;-81
2021/12/18 10:58:15;;;;;;;5.75;1.98;;;8.50;99.90;;;;;;5011478;28;20105;-83
2021/12/18 11:00:55;;;;;;;6.80;2.40;;;8.50;99.90;;;;;;5014766;28;20037;-84
2021/12/18 11:03:30;;;;;;;6.65;3.00;;;8.50;99.90;;;;;;5001616;28;20399;-82
2021/12/18 11:06:01;;;;;;;13.85;2.97;;;8.60;99.90;;;;;;5019368;28;20033;-83
2021/12/18 11:08:30;;;;;;;6.38;2.72;;;8.60;99.90;;;;;;5013144;28;20515;-81
2021/12/18 11:13:50;;;;;;;4.75;2.53;;;8.60;99.90;;;;;;5014728;28;20061;-82
2021/12/18 11:16:17;;;;;;;9.27;3.78;;;8.60;99.90;;;;;;5032754;28;20037;-82
2021/12/18 11:18:43;;;;;;;9.50;3.95;;;8.60;99.90;;;;;;5015453;28;20057;-83
2021/12/18 11:21:09;;;;;;;8.38;3.45;;;8.70;99.90;;;;;;5015752;28;20503;-83
2021/12/18 11:23:42;;;;;;;12.43;3.50;;;8.80;99.90;;;;;;5023249;28;20103;-84
2021/12/18 11:26:09;;;;;;;8.25;3.13;;;8.70;99.90;;;;;;5021126;28;20044;-82
2021/12/18 11:28:43;;;;;;;13.25;3.03;;;8.80;99.90;;;;;;5003038;28;20346;-81
2021/12/18 11:31:10;;;;;;;5.20;2.70;;;8.70;99.90;;;;;;5019607;28;20040;-83
2021/12/18 11:33:37;;;;;;;9.18;2.88;;;8.80;99.90;;;;;;5033661;28;20050;-82
2021/12/18 11:36:04;;;;;;;7.68;3.10;;;8.80;99.90;;;;;;5007747;28;20079;-83
2021/12/18 11:38:34;;;;;;;8.13;2.97;;;8.80;99.90;;;;;;4993832;28;20041;-82
2021/12/18 11:41:00;;;;;;;7.60;3.22;;;8.80;99.90;;;;;;4996923;28;20063;-84
2021/12/18 11:50:28;;;;;;;3.90;2.40;;;8.90;99.90;;;;;;4983469;28;20049;-84
2021/12/18 11:53:06;;;;;;;9.65;3.00;;;8.90;99.90;;;;;;5019882;28;20474;-84
2021/12/18 11:55:48;;;;;;;9.02;2.45;;;8.90;99.90;;;;;;4995901;28;20060;-83
2021/12/18 11:58:21;;;;;;;4.47;2.03;;;8.90;99.90;;;;;;5020205;28;20121;-82
2021/12/18 12:01:07;;;;;;;8.13;1.95;;;9.00;99.90;;;;;;5002648;28;20123;-83
2021/12/18 12:03:53;;;;;;;4.40;1.67;;;8.90;99.90;;;;;;5020782;28;20044;-83
2021/12/18 12:06:19;;;;;;;5.05;1.55;;;9.00;99.90;;;;;;5013935;28;20587;-82
2021/12/18 12:08:45;;;;;;;8.73;3.05;;;8.90;99.90;;;;;;5014912;28;20080;-83
2021/12/18 12:11:40;;;;;;;6.45;1.95;;;9.00;99.90;;;;;;5020409;28;20220;-82
2021/12/18 12:14:14;;;;;;;6.88;1.95;;;9.00;99.90;;;;;;4974700;28;20067;-83
2021/12/18 12:16:46;;;;;;;7.88;2.47;;;9.00;99.90;;;;;;5025973;28;20045;-83
2021/12/18 12:19:16;;;;;;;7.22;2.80;;;9.00;99.90;;;;;;4999075;28;20041;-82
2021/12/18 12:21:52;;;;;;;6.45;2.90;;;9.00;99.90;;;;;;5014002;28;20068;-83
2021/12/18 12:24:29;;;;;;;9.50;2.27;;;9.00;99.90;;;;;;5001089;28;20064;-84
2021/12/18 12:27:27;;;;;;;5.75;1.95;;;9.00;99.90;;;;;;5018500;28;20315;-84
2021/12/18 12:29:54;;;;;;;12.02;2.00;;;9.00;99.90;;;;;;5020915;28;20045;-83
2021/12/18 12:32:20;;;;;;;6.93;1.95;;;9.00;99.90;;;;;;5016748;28;21245;-83
2021/12/18 12:35:10;;;;;;;6.60;1.70;;;9.00;99.90;;;;;;5009054;28;20029;-83
2021/12/18 12:37:46;;;;;;;5.15;1.77;;;9.00;99.90;;;;;;5021919;28;20105;-83
2021/12/18 12:40:13;;;;;;;4.72;1.35;;;9.00;99.90;;;;;;5014293;28;20037;-84
2021/12/18 12:42:42;;;;;;;6.55;2.00;;;9.00;99.90;;;;;;5004916;28;20044;-85
2021/12/18 12:45:13;;;;;;;9.50;2.05;;;9.00;99.90;;;;;;5004181;28;20479;-84
2021/12/18 12:47:40;;;;;;;5.07;1.90;;;9.00;99.90;;;;;;5030063;28;20045;-84
2021/12/18 12:50:11;;;;;;;8.88;2.10;;;9.00;99.90;;;;;;5019623;28;20494;-83
2021/12/18 12:52:55;;;;;;;4.40;1.77;;;9.00;99.90;;;;;;5020001;28;20033;-83
2021/12/18 12:55:22;;;;;;;5.28;1.55;;;9.10;99.90;;;;;;5015664;28;20677;-84
2021/12/18 12:57:55;;;;;;;7.47;2.08;;;9.00;99.90;;;;;;5018061;28;20038;-83
2021/12/18 13:00:23;;;;;;;6.22;1.63;;;9.10;99.90;;;;;;5013644;28;20458;-83
2021/12/18 13:02:56;;;;;;;7.25;1.65;;;9.00;99.90;;;;;;5016090;28;20097;-82
2021/12/18 13:05:23;;;;;;;9.60;2.63;;;9.00;99.90;;;;;;5014736;28;20043;-84
2021/12/18 13:07:55;;;;;;;6.53;2.03;;;9.00;99.90;;;;;;5019155;28;20140;-84
2021/12/18 13:10:23;;;;;;;7.68;2.13;;;9.00;99.90;;;;;;5002895;28;20052;-84
2021/12/18 13:12:59;;;;;;;5.82;2.65;;;9.00;99.90;;;;;;5001403;28;20561;-84
2021/12/18 13:15:25;;;;;;;8.60;2.22;;;9.00;99.90;;;;;;5014331;28;20320;-84
2021/12/18 13:18:07;;;;;;;5.03;2.38;;;9.00;99.90;;;;;;5015634;28;20037;-85
2021/12/18 13:20:45;;;;;;;9.10;3.50;;;9.00;99.90;;;;;;5018781;28;20446;-84
2021/12/18 13:23:17;;;;;;;5.45;3.95;;;8.90;99.90;;;;;;5015577;28;20033;-83
2021/12/18 13:25:54;;;;;;;5.97;2.22;;;9.00;99.90;;;;;;5029313;28;20037;-84
2021/12/18 13:28:22;;;;;;;;;;;9.00;99.90;;;;;;4999833;28;20037;-84
2021/12/18 13:30:51;;;;;;;4.25;1.88;;;8.90;99.90;;;;;;5000307;28;19921;-83
2021/12/18 13:33:31;;;;;;;9.85;2.40;;;9.00;99.90;;;;;;5015735;28;20056;-85
2021/12/18 13:36:03;;;;;;;7.82;2.60;;;8.90;99.90;;;;;;5013436;28;20055;-84
2021/12/18 13:38:40;;;;;;;4.72;1.80;;;8.90;99.90;;;;;;5011943;28;20296;-83
2021/12/18 13:41:12;;;;;;;8.55;2.17;;;8.90;99.90;;;;;;5020519;28;20442;-82
2021/12/18 13:43:38;;;;;;;6.90;2.85;;;8.90;99.90;;;;;;5037009;28;20507;-82
2021/12/18 13:46:12;;;;;;;7.20;2.40;;;8.90;99.90;;;;;;5044163;28;20025;-83
2021/12/18 13:48:47;;;;;;;8.18;2.33;;;8.80;99.90;;;;;;5019015;28;20034;-84
2021/12/18 13:51:18;;;;;;;9.65;2.80;;;8.80;99.90;;;;;;5017245;28;20063;-83
2021/12/18 13:54:06;;;;;;;7.05;2.10;;;8.90;99.90;;;;;;5018587;28;20130;-83
2021/12/18 13:56:41;;;;;;;7.45;2.17;;;8.80;99.90;;;;;;5012263;28;20280;-82
2021/12/18 13:59:18;;;;;;;5.75;2.53;;;8.90;99.90;;;;;;5034741;28;20107;-82
2021/12/18 14:01:45;;;;;;;8.02;2.35;;;8.80;99.90;;;;;;5020784;28;20117;-83
2021/12/18 14:04:17;;;;;;;7.68;2.50;;;8.80;99.90;;;;;;5015809;28;20040;-80
2021/12/18 14:06:45;;;;;;;5.95;2.15;;;8.80;99.90;;;;;;5014370;28;20038;-82
2021/12/18 14:09:22;;;;;;;9.23;2.30;;;8.80;99.90;;;;;;5001850;28;20088;-84